Time;durP1;ratioP1;P1;durP2;ratioP2;P2;SDS_P1;SDS_P2;PMS_P1;PMS_P2;Temp;Humidity;BMP_temperature;BMP_pressure;BME280_temperature;BME280_humidity;BME280_pressure;Samples;Min_cycle;Max_cycle;Signal;HPM_P1;HPM_P2
2022/09/13 00:01:34;;;;;;;17.85;13.25;;;;;;;;;;4988378;28;20031;-77
2022/09/13 00:04:01;;;;;;;18.45;14.27;;;;;;;;;;4982241;28;20093;-77
2022/09/13 00:06:27;;;;;;;17.15;14.00;;;;;;;;;;4965915;28;20487;-77
2022/09/13 00:08:53;;;;;;;17.25;14.43;;;;;;;;;;4986863;28;20084;-76
2022/09/13 00:11:21;;;;;;;16.95;12.88;;;;;;;;;;4986576;28;20077;-77
2022/09/13 00:13:48;;;;;;;18.65;14.27;;;;;;;;;;4986975;28;20027;-77
2022/09/13 00:16:15;;;;;;;20.85;14.30;;;;;;;;;;4987419;28;20030;-77
2022/09/13 00:18:41;;;;;;;24.75;14.55;;;;;;;;;;4987754;28;20036;-78
2022/09/13 00:21:08;;;;;;;21.95;15.98;;;;;;;;;;4986491;28;20027;-77
2022/09/13 00:23:34;;;;;;;20.75;15.15;;;;;;;;;;4987580;28;20146;-77
2022/09/13 00:26:04;;;;;;;25.13;15.95;;;;;;;;;;4988467;28;20487;-76
2022/09/13 00:28:30;;;;;;;22.63;17.05;;;;;;;;;;4984096;28;20484;-75
2022/09/13 00:30:59;;;;;;;29.33;19.95;;;;;;;;;;4987939;28;20050;-77
2022/09/13 00:33:25;;;;;;;22.75;19.13;;;;;;;;;;4987799;28;20129;-76
2022/09/13 00:35:51;;;;;;;27.17;21.02;;;;;;;;;;4989356;28;20125;-78
2022/09/13 00:38:17;;;;;;;31.48;21.23;;;;;;;;;;4982704;28;20101;-77
2022/09/13 00:40:43;;;;;;;27.30;20.98;;;;;;;;;;4987068;28;20058;-77
2022/09/13 00:43:15;;;;;;;28.10;20.05;;;;;;;;;;4990113;28;20634;-78
2022/09/13 00:45:42;;;;;;;24.80;19.73;;;;;;;;;;5009211;28;20487;-78
2022/09/13 00:48:08;;;;;;;29.00;19.08;;;;;;;;;;4970147;28;20419;-79
2022/09/13 00:50:36;;;;;;;26.85;20.42;;;;;;;;;;4993060;28;20007;-79
2022/09/13 00:53:06;;;;;;;25.77;19.60;;;;;;;;;;4991479;28;20030;-78
2022/09/13 00:55:41;;;;;;;29.83;20.40;;;;;;;;;;4995331;28;20081;-79
2022/09/13 00:58:10;;;;;;;27.55;21.63;;;;;;;;;;4995980;28;20050;-80
2022/09/13 01:00:38;;;;;;;36.38;22.52;;;;;;;;;;4996178;28;20029;-80
2022/09/13 01:03:06;;;;;;;37.00;22.02;;;;;;;;;;4999988;28;20109;-79
2022/09/13 01:05:52;;;;;;;40.58;23.88;;;;;;;;;;5001450;28;20046;-80
2022/09/13 01:08:21;;;;;;;31.45;23.88;;;;;;;;;;4998583;28;20105;-80
2022/09/13 01:10:50;;;;;;;32.30;24.65;;;;;;;;;;4999458;28;20105;-80
2022/09/13 01:13:18;;;;;;;40.60;24.65;;;;;;;;;;5002711;28;20106;-80
2022/09/13 01:15:46;;;;;;;34.70;24.23;;;;;;;;;;5000545;28;20042;-80
2022/09/13 01:18:13;;;;;;;35.83;23.20;;;;;;;;;;4998827;28;20026;-81
2022/09/13 01:20:51;;;;;;;33.40;24.35;;;;;;;;;;5003998;28;20054;-80
2022/09/13 01:23:17;;;;;;;39.10;27.05;;;;;;;;;;4997728;28;20010;-81
2022/09/13 01:25:55;;;;;;;48.22;28.95;;;;;;;;;;5004197;28;20365;-80
2022/09/13 01:28:21;;;;;;;44.22;30.65;;;;;;;;;;5001111;28;20121;-81
2022/09/13 01:31:02;;;;;;;50.05;31.92;;;;;;;;;;5003837;28;20376;-81
2022/09/13 01:33:31;;;;;;;49.13;32.88;;;;;;;;;;5001188;28;20425;-80
2022/09/13 01:36:03;;;;;;;48.38;32.80;;;;;;;;;;5004735;28;20035;-78
2022/09/13 01:38:29;;;;;;;47.47;33.28;;;;;;;;;;5004328;28;20022;-79
2022/09/13 01:41:14;;;;;;;50.00;33.47;;;;;;;;;;4997592;28;20102;-78
2022/09/13 01:43:47;;;;;;;45.08;32.58;;;;;;;;;;5000256;28;20034;-78
2022/09/13 01:46:13;;;;;;;43.35;31.85;;;;;;;;;;5001255;28;20123;-79
2022/09/13 01:51:43;;;;;;;40.95;27.58;;;;;;;;;;4999693;28;20096;-79
2022/09/13 01:54:17;;;;;;;38.75;25.40;;;;;;;;;;5002794;28;20047;-79
2022/09/13 01:56:48;;;;;;;35.78;24.02;;;;;;;;;;5001245;28;20042;-79
2022/09/13 01:59:24;;;;;;;36.55;25.27;;;;;;;;;;4977800;28;20054;-78
2022/09/13 02:02:02;;;;;;;36.10;26.48;;;;;;;;;;4979380;28;20038;-79
2022/09/13 02:04:33;;;;;;;40.53;26.23;;;;;;;;;;4991720;28;20136;-79
2022/09/13 02:07:03;;;;;;;39.28;25.98;;;;;;;;;;4994364;28;20125;-79
2022/09/13 02:09:32;;;;;;;45.10;28.77;;;;;;;;;;4995422;28;20086;-79
2022/09/13 02:12:02;;;;;;;41.92;28.50;;;;;;;;;;4997853;28;20069;-79
2022/09/13 02:14:31;;;;;;;47.30;31.45;;;;;;;;;;4984758;28;20035;-79
2022/09/13 02:17:06;;;;;;;52.78;33.33;;;;;;;;;;4995923;28;20045;-79
2022/09/13 02:19:41;;;;;;;54.72;34.08;;;;;;;;;;4992669;28;20061;-78
2022/09/13 02:22:11;;;;;;;55.00;34.33;;;;;;;;;;4994669;28;20034;-78
2022/09/13 02:24:41;;;;;;;59.05;35.13;;;;;;;;;;4992059;28;20033;-78
2022/09/13 02:27:09;;;;;;;53.78;35.60;;;;;;;;;;4974179;28;20031;-79
2022/09/13 02:29:37;;;;;;;48.85;32.65;;;;;;;;;;4991095;28;20030;-79
2022/09/13 02:32:10;;;;;;;58.60;37.20;;;;;;;;;;4988446;28;20037;-78
2022/09/13 02:34:36;;;;;;;58.05;36.83;;;;;;;;;;4990197;28;20034;-78
2022/09/13 02:37:03;;;;;;;56.42;36.60;;;;;;;;;;4990372;28;20173;-78
2022/09/13 02:39:31;;;;;;;55.60;36.70;;;;;;;;;;4989758;28;20101;-79
2022/09/13 02:42:07;;;;;;;59.30;36.70;;;;;;;;;;4967062;28;20042;-79
2022/09/13 02:44:38;;;;;;;54.72;34.45;;;;;;;;;;4987543;28;20031;-79
2022/09/13 02:47:10;;;;;;;51.92;33.33;;;;;;;;;;4987651;28;20023;-79
2022/09/13 02:49:39;;;;;;;54.83;35.45;;;;;;;;;;4985880;28;20026;-78
2022/09/13 02:52:17;;;;;;;48.28;32.63;;;;;;;;;;4988895;28;20070;-78
2022/09/13 02:54:49;;;;;;;56.05;36.13;;;;;;;;;;4988934;28;20042;-78
2022/09/13 02:57:42;;;;;;;54.92;35.55;;;;;;;;;;4988507;28;20480;-78
2022/09/13 03:00:08;;;;;;;60.13;38.50;;;;;;;;;;4985411;28;20065;-79
2022/09/13 03:02:35;;;;;;;59.85;36.70;;;;;;;;;;4988995;28;20041;-79
2022/09/13 03:05:01;;;;;;;65.07;40.63;;;;;;;;;;4988296;28;20233;-78
2022/09/13 03:07:27;;;;;;;67.63;40.67;;;;;;;;;;4986238;28;20030;-78
2022/09/13 03:10:12;;;;;;;63.95;41.08;;;;;;;;;;4988736;28;20389;-78
2022/09/13 03:12:59;;;;;;;69.30;42.33;;;;;;;;;;4985882;28;20023;-78
2022/09/13 03:15:35;;;;;;;69.07;43.88;;;;;;;;;;4969520;28;20038;-78
2022/09/13 03:18:04;;;;;;;71.00;43.33;;;;;;;;;;4987687;28;20026;-78
2022/09/13 03:20:38;;;;;;;75.60;47.67;;;;;;;;;;4987791;28;20037;-76
2022/09/13 03:23:10;;;;;;;71.93;45.08;;;;;;;;;;4985772;28;20117;-76
2022/09/13 03:25:39;;;;;;;76.35;44.60;;;;;;;;;;4987321;28;20121;-77
2022/09/13 03:28:18;;;;;;;71.63;42.90;;;;;;;;;;4987743;28;20034;-77
2022/09/13 03:30:49;;;;;;;67.50;40.15;;;;;;;;;;4989627;28;20130;-77
2022/09/13 03:33:20;;;;;;;59.78;39.80;;;;;;;;;;4987568;28;20026;-77
2022/09/13 03:35:56;;;;;;;58.25;38.47;;;;;;;;;;4986695;28;20046;-78
2022/09/13 03:38:32;;;;;;;63.03;40.03;;;;;;;;;;4990065;28;20034;-77
2022/09/13 03:41:01;;;;;;;66.60;40.83;;;;;;;;;;4991091;28;20105;-77
2022/09/13 03:43:36;;;;;;;66.78;41.95;;;;;;;;;;4991598;28;20129;-77
2022/09/13 03:46:05;;;;;;;68.60;42.67;;;;;;;;;;4991934;28;20030;-77
2022/09/13 03:48:32;;;;;;;69.22;39.15;;;;;;;;;;4989637;28;20042;-77
2022/09/13 03:50:58;;;;;;;74.18;43.55;;;;;;;;;;4994176;28;20480;-79
2022/09/13 03:53:25;;;;;;;74.38;44.97;;;;;;;;;;4994647;28;20025;-79
2022/09/13 03:55:51;;;;;;;73.28;42.70;;;;;;;;;;4991794;28;20039;-78
2022/09/13 03:58:18;;;;;;;75.05;44.92;;;;;;;;;;4994369;28;20065;-78
2022/09/13 04:00:44;;;;;;;72.82;43.08;;;;;;;;;;4994120;28;20042;-79
2022/09/13 04:03:11;;;;;;;80.05;47.08;;;;;;;;;;4995530;28;20027;-79
2022/09/13 04:05:37;;;;;;;87.22;48.25;;;;;;;;;;4989578;28;20522;-78
2022/09/13 04:08:07;;;;;;;84.97;46.40;;;;;;;;;;4995113;28;20026;-79
2022/09/13 04:10:34;;;;;;;77.68;46.72;;;;;;;;;;4996922;28;20010;-78
2022/09/13 04:13:00;;;;;;;91.80;49.75;;;;;;;;;;4974241;28;20042;-79
2022/09/13 04:15:27;;;;;;;81.45;46.70;;;;;;;;;;4997431;28;20046;-78
2022/09/13 04:17:53;;;;;;;89.65;46.08;;;;;;;;;;4994080;28;20034;-78
2022/09/13 04:20:19;;;;;;;105.60;49.08;;;;;;;;;;4996767;28;20084;-78
2022/09/13 04:22:56;;;;;;;101.55;49.08;;;;;;;;;;4993194;28;20796;-80
2022/09/13 04:25:23;;;;;;;129.07;51.20;;;;;;;;;;4981956;28;20026;-78
2022/09/13 04:27:58;;;;;;;102.93;50.95;;;;;;;;;;5000953;28;20049;-78
2022/09/13 04:30:26;;;;;;;118.03;53.83;;;;;;;;;;4998315;28;20037;-79
2022/09/13 04:32:55;;;;;;;117.35;58.13;;;;;;;;;;4999725;28;20018;-78
2022/09/13 04:35:22;;;;;;;114.78;58.17;;;;;;;;;;4999885;28;20102;-79
2022/09/13 04:37:47;;;;;;;119.25;57.60;;;;;;;;;;4986194;28;20041;-78
2022/09/13 04:40:14;;;;;;;118.78;58.05;;;;;;;;;;5002642;28;20034;-81
2022/09/13 04:42:41;;;;;;;118.35;57.67;;;;;;;;;;5000203;28;20030;-79
2022/09/13 04:45:07;;;;;;;127.28;59.25;;;;;;;;;;4982912;28;20010;-77
2022/09/13 04:47:33;;;;;;;129.35;61.28;;;;;;;;;;4982569;28;20451;-78
2022/09/13 04:49:59;;;;;;;117.55;61.28;;;;;;;;;;4981457;28;20123;-78
2022/09/13 04:52:25;;;;;;;120.45;62.30;;;;;;;;;;4970773;28;20035;-77
2022/09/13 04:54:51;;;;;;;124.50;62.42;;;;;;;;;;4999109;28;20050;-79
2022/09/13 04:57:17;;;;;;;118.43;59.88;;;;;;;;;;4993031;28;20121;-79
2022/09/13 04:59:43;;;;;;;115.43;60.90;;;;;;;;;;4998709;28;20525;-79
2022/09/13 05:02:09;;;;;;;122.45;63.00;;;;;;;;;;4998365;28;20042;-79
2022/09/13 05:04:35;;;;;;;124.75;63.03;;;;;;;;;;4994274;28;20030;-80
2022/09/13 05:07:01;;;;;;;112.38;58.70;;;;;;;;;;4994695;28;20496;-77
2022/09/13 05:09:27;;;;;;;113.50;58.03;;;;;;;;;;4994537;28;20078;-78
2022/09/13 05:11:54;;;;;;;111.55;59.30;;;;;;;;;;4992779;28;20525;-78
2022/09/13 05:14:22;;;;;;;119.85;63.25;;;;;;;;;;4991736;28;20515;-78
2022/09/13 05:16:48;;;;;;;117.05;61.15;;;;;;;;;;4966784;28;20425;-78
2022/09/13 05:19:14;;;;;;;125.80;62.92;;;;;;;;;;4992792;28;20038;-77
2022/09/13 05:21:41;;;;;;;122.40;64.40;;;;;;;;;;4970284;28;20034;-77
2022/09/13 05:24:07;;;;;;;124.45;64.13;;;;;;;;;;4988334;28;20033;-77
2022/09/13 05:26:33;;;;;;;117.80;63.28;;;;;;;;;;4990933;28;20050;-78
2022/09/13 05:28:59;;;;;;;128.45;63.33;;;;;;;;;;4973323;28;20396;-78
2022/09/13 05:31:27;;;;;;;113.88;61.38;;;;;;;;;;4989534;28;20086;-78
2022/09/13 05:34:01;;;;;;;117.18;61.10;;;;;;;;;;4985589;28;20105;-79
2022/09/13 05:36:27;;;;;;;114.25;58.72;;;;;;;;;;4991054;28;20038;-78
2022/09/13 05:38:54;;;;;;;105.03;55.78;;;;;;;;;;4990863;28;20026;-78
2022/09/13 05:41:20;;;;;;;96.10;54.97;;;;;;;;;;4989810;28;20038;-78
2022/09/13 05:43:46;;;;;;;94.30;54.65;;;;;;;;;;4967163;28;20092;-77
2022/09/13 05:46:14;;;;;;;88.65;52.42;;;;;;;;;;4986817;28;20030;-78
2022/09/13 05:48:40;;;;;;;88.78;50.58;;;;;;;;;;4986749;28;20044;-78
2022/09/13 05:51:13;;;;;;;86.55;50.35;;;;;;;;;;4984531;28;20480;-78
2022/09/13 05:53:41;;;;;;;87.57;50.60;;;;;;;;;;4988906;28;20034;-77
2022/09/13 05:56:11;;;;;;;83.88;48.33;;;;;;;;;;4987715;28;20035;-76
2022/09/13 05:58:44;;;;;;;81.88;48.88;;;;;;;;;;4987264;28;20151;-76
2022/09/13 06:01:11;;;;;;;90.20;50.22;;;;;;;;;;4985827;28;20340;-78
2022/09/13 06:03:37;;;;;;;86.25;48.25;;;;;;;;;;4987279;28;20023;-78
2022/09/13 06:06:03;;;;;;;78.15;46.38;;;;;;;;;;4973242;28;20030;-77
2022/09/13 06:08:30;;;;;;;82.15;48.65;;;;;;;;;;4964508;28;20038;-77
2022/09/13 06:10:57;;;;;;;84.50;49.78;;;;;;;;;;4982854;28;20239;-78
2022/09/13 06:13:23;;;;;;;77.43;47.08;;;;;;;;;;4980402;28;20042;-79
2022/09/13 06:15:49;;;;;;;78.68;49.10;;;;;;;;;;4988390;28;20045;-79
2022/09/13 06:18:16;;;;;;;75.78;48.70;;;;;;;;;;4986870;28;20559;-76
2022/09/13 06:20:42;;;;;;;75.18;47.40;;;;;;;;;;4988385;28;20022;-77
2022/09/13 06:23:08;;;;;;;83.93;48.45;;;;;;;;;;4985112;28;20042;-76
2022/09/13 06:25:34;;;;;;;76.80;47.92;;;;;;;;;;4986362;28;20100;-77
2022/09/13 06:28:00;;;;;;;82.10;47.40;;;;;;;;;;4985123;28;20062;-77
2022/09/13 06:30:26;;;;;;;72.47;47.33;;;;;;;;;;4970804;28;20042;-78
2022/09/13 06:32:52;;;;;;;72.20;47.80;;;;;;;;;;4969993;28;20355;-77
2022/09/13 06:35:18;;;;;;;79.03;46.35;;;;;;;;;;4973540;28;20042;-78
2022/09/13 06:37:44;;;;;;;66.88;46.30;;;;;;;;;;4992152;28;20034;-78
2022/09/13 06:40:10;;;;;;;65.88;42.75;;;;;;;;;;4986629;28;20511;-77
2022/09/13 06:42:37;;;;;;;56.22;41.58;;;;;;;;;;4992704;28;20502;-78
2022/09/13 06:45:03;;;;;;;60.65;41.08;;;;;;;;;;4984388;28;20034;-76
2022/09/13 06:47:29;;;;;;;63.13;42.65;;;;;;;;;;4983499;28;20043;-79
2022/09/13 06:49:56;;;;;;;64.32;41.63;;;;;;;;;;4969432;28;20045;-78
2022/09/13 06:52:22;;;;;;;60.42;40.58;;;;;;;;;;4955696;28;20038;-78
2022/09/13 06:54:48;;;;;;;63.67;42.17;;;;;;;;;;4989012;28;20055;-78
2022/09/13 06:57:14;;;;;;;60.28;40.15;;;;;;;;;;4977087;28;20035;-79
2022/09/13 06:59:40;;;;;;;58.63;38.80;;;;;;;;;;4990793;28;20037;-77
2022/09/13 07:02:06;;;;;;;54.17;37.15;;;;;;;;;;4985733;28;20931;-79
2022/09/13 07:04:32;;;;;;;50.25;34.58;;;;;;;;;;4987804;28;20070;-77
2022/09/13 07:06:58;;;;;;;43.70;28.77;;;;;;;;;;4969698;28;20038;-76
2022/09/13 07:09:25;;;;;;;34.97;22.88;;;;;;;;;;4983653;28;20142;-78
2022/09/13 07:11:52;;;;;;;32.80;23.73;;;;;;;;;;4967384;28;20030;-78
2022/09/13 07:14:23;;;;;;;34.13;23.45;;;;;;;;;;4983642;28;20034;-79
2022/09/13 07:16:52;;;;;;;34.42;22.75;;;;;;;;;;4977094;28;20041;-78
2022/09/13 07:19:21;;;;;;;35.55;23.40;;;;;;;;;;4979775;28;20078;-78
2022/09/13 07:21:48;;;;;;;31.90;20.40;;;;;;;;;;4986541;28;20025;-77
2022/09/13 07:24:15;;;;;;;32.65;19.83;;;;;;;;;;4985513;28;20049;-79
2022/09/13 07:26:41;;;;;;;28.65;18.42;;;;;;;;;;4979531;28;20026;-78
2022/09/13 07:29:08;;;;;;;27.45;19.08;;;;;;;;;;4983092;28;20105;-75
2022/09/13 07:31:36;;;;;;;27.48;18.08;;;;;;;;;;4980390;28;20061;-77
2022/09/13 07:34:06;;;;;;;26.90;16.45;;;;;;;;;;4981646;28;20035;-75
2022/09/13 07:36:33;;;;;;;24.45;15.73;;;;;;;;;;4983593;28;20042;-78
2022/09/13 07:39:00;;;;;;;23.27;15.90;;;;;;;;;;4981893;28;20034;-78
2022/09/13 07:41:27;;;;;;;24.38;15.48;;;;;;;;;;4981357;28;20061;-77
2022/09/13 07:43:53;;;;;;;24.65;15.15;;;;;;;;;;4983177;28;20080;-78
2022/09/13 07:46:21;;;;;;;20.17;14.88;;;;;;;;;;4982672;28;20031;-77
2022/09/13 07:48:47;;;;;;;25.10;13.55;;;;;;;;;;4981882;28;20506;-78
2022/09/13 07:51:20;;;;;;;20.52;13.60;;;;;;;;;;4984241;28;20030;-78
2022/09/13 07:53:46;;;;;;;22.33;13.60;;;;;;;;;;4988094;28;20042;-77
2022/09/13 07:56:20;;;;;;;16.17;11.30;;;;;;;;;;4984985;28;20038;-78
2022/09/13 07:58:47;;;;;;;13.95;10.40;;;;;;;;;;4984879;28;20510;-78
2022/09/13 08:01:16;;;;;;;16.33;9.00;;;;;;;;;;4982847;28;20576;-78
2022/09/13 08:03:42;;;;;;;13.95;8.50;;;;;;;;;;4990185;28;20030;-78
2022/09/13 08:06:08;;;;;;;11.20;7.60;;;;;;;;;;4988433;28;20527;-78
2022/09/13 08:08:35;;;;;;;11.70;6.07;;;;;;;;;;4984095;28;20084;-78
2022/09/13 08:11:03;;;;;;;11.07;4.30;;;;;;;;;;4985310;28;20038;-77
2022/09/13 08:13:31;;;;;;;7.43;2.70;;;;;;;;;;4987870;28;20084;-78
2022/09/13 08:15:57;;;;;;;6.97;2.83;;;;;;;;;;4991248;28;20034;-78
2022/09/13 08:18:23;;;;;;;8.60;2.58;;;;;;;;;;4988886;28;20400;-77
2022/09/13 08:20:49;;;;;;;7.03;2.83;;;;;;;;;;4987960;28;20034;-78
2022/09/13 08:23:15;;;;;;;8.25;2.10;;;;;;;;;;4988510;28;20674;-77
2022/09/13 08:25:41;;;;;;;6.70;2.20;;;;;;;;;;4991901;28;20491;-78
2022/09/13 08:28:08;;;;;;;9.05;2.50;;;;;;;;;;4990662;28;20138;-77
2022/09/13 08:30:36;;;;;;;5.22;2.70;;;;;;;;;;4991498;28;20105;-78
2022/09/13 08:33:04;;;;;;;6.15;2.40;;;;;;;;;;4991888;28;20085;-77
2022/09/13 08:35:30;;;;;;;8.40;2.60;;;;;;;;;;4989639;28;20042;-78
2022/09/13 08:37:56;;;;;;;6.75;2.40;;;;;;;;;;4989596;28;20039;-79
2022/09/13 08:40:28;;;;;;;5.63;2.15;;;;;;;;;;4973080;28;20030;-79
2022/09/13 08:43:15;;;;;;;6.88;2.08;;;;;;;;;;4972951;28;20081;-78
2022/09/13 08:45:41;;;;;;;7.97;2.55;;;;;;;;;;4983330;28;20030;-79
2022/09/13 08:48:13;;;;;;;6.10;2.63;;;;;;;;;;4983893;28;20602;-78
2022/09/13 08:50:41;;;;;;;6.15;1.90;;;;;;;;;;4985948;28;20506;-77
2022/09/13 08:53:25;;;;;;;5.68;2.20;;;;;;;;;;4986541;28;20085;-76
2022/09/13 08:55:51;;;;;;;8.20;1.63;;;;;;;;;;4980275;28;20348;-78
2022/09/13 08:58:17;;;;;;;6.32;2.00;;;;;;;;;;4985689;28;20030;-78
2022/09/13 09:00:46;;;;;;;8.82;2.10;;;;;;;;;;4985784;28;20030;-78
2022/09/13 09:03:15;;;;;;;9.02;2.00;;;;;;;;;;4985508;28;20038;-79
2022/09/13 09:05:49;;;;;;;10.60;1.90;;;;;;;;;;4986041;28;20049;-77
2022/09/13 09:08:23;;;;;;;6.22;1.58;;;;;;;;;;4985552;28;20035;-77
2022/09/13 09:10:49;;;;;;;7.35;1.60;;;;;;;;;;4986869;28;20100;-77
2022/09/13 09:13:25;;;;;;;6.97;1.65;;;;;;;;;;4968460;28;20042;-77
2022/09/13 09:16:04;;;;;;;10.18;1.92;;;;;;;;;;4985650;28;20026;-77
2022/09/13 09:18:32;;;;;;;7.05;1.35;;;;;;;;;;4989468;28;20057;-78
2022/09/13 09:21:00;;;;;;;7.30;1.38;;;;;;;;;;4987989;28;20506;-78
2022/09/13 09:23:39;;;;;;;9.85;1.90;;;;;;;;;;4986002;28;20026;-77
2022/09/13 09:26:16;;;;;;;6.72;1.60;;;;;;;;;;4989068;28;20034;-77
2022/09/13 09:28:43;;;;;;;5.93;1.80;;;;;;;;;;4986882;28;20275;-77
2022/09/13 09:31:27;;;;;;;6.60;1.88;;;;;;;;;;4987790;28;20030;-78
2022/09/13 09:34:02;;;;;;;4.88;1.50;;;;;;;;;;4991427;28;20034;-77
2022/09/13 09:36:40;;;;;;;7.10;1.33;;;;;;;;;;4972245;28;20089;-77
2022/09/13 09:39:11;;;;;;;7.25;1.50;;;;;;;;;;4984835;28;20492;-78
2022/09/13 09:41:37;;;;;;;5.05;1.40;;;;;;;;;;4984086;28;20054;-78
2022/09/13 09:44:04;;;;;;;8.05;1.63;;;;;;;;;;4990232;28;20038;-77
2022/09/13 09:46:33;;;;;;;4.00;1.42;;;;;;;;;;4987497;28;20121;-78
2022/09/13 09:50:07;;;;;;;9.15;2.42;;;;;;;;;;4987963;28;20117;-78
2022/09/13 09:51:57;;;;;;;7.00;1.92;;;;;;;;;;4990571;28;20088;-78
2022/09/13 09:54:27;;;;;;;7.47;1.40;;;;;;;;;;4974052;28;20042;-79
2022/09/13 09:56:54;;;;;;;6.65;2.30;;;;;;;;;;4992168;28;20022;-79
2022/09/13 09:59:32;;;;;;;11.18;1.92;;;;;;;;;;4987622;28;20146;-77
2022/09/13 10:02:00;;;;;;;7.90;1.70;;;;;;;;;;4988368;28;20022;-79
2022/09/13 10:04:27;;;;;;;6.45;1.58;;;;;;;;;;4984179;28;20038;-78
2022/09/13 10:07:10;;;;;;;9.10;1.80;;;;;;;;;;4987053;28;20085;-77
2022/09/13 10:09:38;;;;;;;11.60;2.28;;;;;;;;;;4990731;28;20030;-78
2022/09/13 10:12:05;;;;;;;9.35;1.90;;;;;;;;;;4991789;28;20354;-78
2022/09/13 10:14:31;;;;;;;4.45;1.92;;;;;;;;;;4978323;28;20316;-78
2022/09/13 10:17:21;;;;;;;6.55;2.53;;;;;;;;;;4980137;28;20033;-78
2022/09/13 10:20:18;;;;;;;7.25;2.35;;;;;;;;;;4982268;28;20043;-78
2022/09/13 10:22:46;;;;;;;6.75;2.60;;;;;;;;;;4992421;28;20027;-78
2022/09/13 10:25:17;;;;;;;5.30;1.60;;;;;;;;;;4986898;28;20170;-78
2022/09/13 10:27:48;;;;;;;5.25;1.77;;;;;;;;;;4987006;28;21328;-79
2022/09/13 10:30:30;;;;;;;5.95;1.90;;;;;;;;;;4984522;28;20040;-79
2022/09/13 10:32:56;;;;;;;6.03;1.80;;;;;;;;;;4987685;28;20176;-79
2022/09/13 10:35:23;;;;;;;5.95;1.45;;;;;;;;;;4985569;28;20128;-79
2022/09/13 10:37:49;;;;;;;10.32;1.70;;;;;;;;;;4984433;28;20027;-80
2022/09/13 10:40:29;;;;;;;7.78;1.73;;;;;;;;;;4984906;28;20383;-80
2022/09/13 10:42:57;;;;;;;7.25;2.33;;;;;;;;;;4981392;28;20471;-79
2022/09/13 10:45:26;;;;;;;5.43;1.73;;;;;;;;;;4982469;28;20403;-78
2022/09/13 10:47:54;;;;;;;9.77;2.30;;;;;;;;;;4982959;28;20022;-77
2022/09/13 10:50:28;;;;;;;21.60;4.28;;;;;;;;;;4982621;28;20033;-76
2022/09/13 10:52:54;;;;;;;11.23;2.10;;;;;;;;;;4988661;28;20213;-78
2022/09/13 10:55:28;;;;;;;10.43;2.08;;;;;;;;;;4984361;28;20053;-78
2022/09/13 10:57:54;;;;;;;7.30;1.67;;;;;;;;;;4986102;28;20034;-79
2022/09/13 11:00:20;;;;;;;4.78;1.58;;;;;;;;;;4984489;28;20392;-80
2022/09/13 11:02:52;;;;;;;5.28;1.80;;;;;;;;;;4987800;28;20109;-79
2022/09/13 11:05:21;;;;;;;5.00;1.77;;;;;;;;;;4988871;28;20022;-80
2022/09/13 11:07:55;;;;;;;7.03;1.88;;;;;;;;;;4970154;28;20032;-81
2022/09/13 11:10:42;;;;;;;6.35;1.58;;;;;;;;;;4989938;28;20253;-79
2022/09/13 11:13:18;;;;;;;8.93;2.17;;;;;;;;;;4985879;28;20026;-79
2022/09/13 11:16:05;;;;;;;11.32;2.38;;;;;;;;;;4983838;28;20038;-80
2022/09/13 11:18:50;;;;;;;7.15;2.03;;;;;;;;;;4993072;28;20018;-77
2022/09/13 11:21:25;;;;;;;8.02;1.98;;;;;;;;;;4981701;28;20050;-78
2022/09/13 11:23:51;;;;;;;10.02;1.98;;;;;;;;;;4991570;28;20031;-72
2022/09/13 11:26:27;;;;;;;5.93;1.88;;;;;;;;;;4983921;28;20039;-79
2022/09/13 11:29:05;;;;;;;6.15;1.80;;;;;;;;;;4989579;28;20500;-78
2022/09/13 11:31:43;;;;;;;6.60;2.05;;;;;;;;;;4989420;28;20030;-78
2022/09/13 11:34:41;;;;;;;5.97;2.03;;;;;;;;;;4994936;28;20058;-79
2022/09/13 11:37:16;;;;;;;6.15;1.92;;;;;;;;;;4923427;28;20069;-79
2022/09/13 11:39:47;;;;;;;10.07;1.90;;;;;;;;;;4991062;28;20119;-78
2022/09/13 11:42:21;;;;;;;6.60;1.80;;;;;;;;;;4992414;28;20030;-79
2022/09/13 11:44:53;;;;;;;8.63;1.67;;;;;;;;;;4993393;28;20057;-79
2022/09/13 11:47:38;;;;;;;8.10;2.25;;;;;;;;;;4993155;28;20077;-78
2022/09/13 11:50:13;;;;;;;32.17;4.22;;;;;;;;;;4983955;28;20211;-78
2022/09/13 11:52:45;;;;;;;6.50;1.80;;;;;;;;;;4980625;28;20031;-79
2022/09/13 11:55:20;;;;;;;4.93;1.67;;;;;;;;;;4989705;28;20053;-79
2022/09/13 11:57:51;;;;;;;8.95;2.28;;;;;;;;;;4967328;28;20507;-79
2022/09/13 12:00:25;;;;;;;9.68;1.73;;;;;;;;;;4987004;28;20026;-79
2022/09/13 12:03:10;;;;;;;6.53;1.80;;;;;;;;;;4985503;28;20033;-79
2022/09/13 12:05:57;;;;;;;8.48;1.63;;;;;;;;;;4972718;28;20034;-80
2022/09/13 12:08:32;;;;;;;2.60;1.15;;;;;;;;;;4973712;28;20676;-78
2022/09/13 12:11:09;;;;;;;9.82;1.45;;;;;;;;;;4984345;28;20026;-78
2022/09/13 12:13:39;;;;;;;5.72;1.50;;;;;;;;;;4989795;28;20030;-78
2022/09/13 12:16:05;;;;;;;;;;;;;;;;;;4991695;28;20077;-79
2022/09/13 12:18:38;;;;;;;6.50;1.38;;;;;;;;;;4990271;28;19917;-79
2022/09/13 12:21:09;;;;;;;4.53;1.80;;;;;;;;;;4973513;28;20038;-79
2022/09/13 12:23:37;;;;;;;9.15;1.60;;;;;;;;;;4987052;28;20018;-79
2022/09/13 12:26:07;;;;;;;11.38;1.77;;;;;;;;;;4992201;28;20034;-78
2022/09/13 12:28:36;;;;;;;5.93;1.40;;;;;;;;;;4980209;28;20038;-79
2022/09/13 12:31:05;;;;;;;10.50;2.15;;;;;;;;;;4980757;28;20050;-78
2022/09/13 12:33:31;;;;;;;9.05;1.60;;;;;;;;;;4983340;28;20077;-76
2022/09/13 12:36:12;;;;;;;4.40;1.27;;;;;;;;;;4987706;28;20038;-76
2022/09/13 12:38:53;;;;;;;8.15;1.60;;;;;;;;;;4986087;28;20030;-77
2022/09/13 12:41:27;;;;;;;6.22;1.35;;;;;;;;;;4989753;28;20053;-77
2022/09/13 12:43:53;;;;;;;9.10;1.52;;;;;;;;;;4989620;28;20464;-78
2022/09/13 12:46:25;;;;;;;6.57;1.40;;;;;;;;;;4985314;28;20033;-77
2022/09/13 12:48:52;;;;;;;6.88;1.40;;;;;;;;;;4990011;28;20106;-77
2022/09/13 12:51:29;;;;;;;5.57;1.40;;;;;;;;;;4992124;28;20030;-78
2022/09/13 12:54:04;;;;;;;4.63;1.48;;;;;;;;;;4989905;28;20092;-79
2022/09/13 12:56:49;;;;;;;6.90;1.30;;;;;;;;;;4982477;28;20078;-79
2022/09/13 12:59:34;;;;;;;5.80;1.20;;;;;;;;;;4979834;28;20054;-79
2022/09/13 13:02:00;;;;;;;12.15;1.83;;;;;;;;;;4975095;28;20030;-78
2022/09/13 13:04:28;;;;;;;9.68;1.30;;;;;;;;;;4991653;28;20479;-78
2022/09/13 13:07:03;;;;;;;7.88;1.67;;;;;;;;;;4977332;28;20483;-79
2022/09/13 13:09:45;;;;;;;5.95;1.42;;;;;;;;;;4975247;28;20472;-79
2022/09/13 13:12:12;;;;;;;7.95;1.20;;;;;;;;;;4993469;28;20045;-79
2022/09/13 13:14:38;;;;;;;6.10;1.15;;;;;;;;;;4986071;28;20027;-78
2022/09/13 13:17:22;;;;;;;4.45;1.23;;;;;;;;;;4989987;28;20030;-81
2022/09/13 13:19:48;;;;;;;4.22;1.35;;;;;;;;;;4975464;28;21119;-78
2022/09/13 13:22:33;;;;;;;4.03;1.25;;;;;;;;;;4989451;28;20403;-78
2022/09/13 13:25:19;;;;;;;5.30;0.88;;;;;;;;;;4992006;28;20041;-78
2022/09/13 13:27:48;;;;;;;6.90;1.10;;;;;;;;;;4986245;28;20373;-79
2022/09/13 13:30:33;;;;;;;4.18;1.35;;;;;;;;;;4973747;28;20046;-78
2022/09/13 13:33:34;;;;;;;5.68;1.42;;;;;;;;;;4985295;28;20507;-78
2022/09/13 13:36:20;;;;;;;5.55;1.15;;;;;;;;;;4897570;29;20507;-78
2022/09/13 13:38:47;;;;;;;5.32;1.15;;;;;;;;;;4985515;28;20050;-79
2022/09/13 13:41:32;;;;;;;3.75;1.17;;;;;;;;;;4990722;28;20029;-79
2022/09/13 13:43:59;;;;;;;5.88;1.17;;;;;;;;;;4989751;28;20049;-79
2022/09/13 13:46:31;;;;;;;8.98;1.20;;;;;;;;;;4990517;28;20117;-79
2022/09/13 13:49:16;;;;;;;8.68;1.20;;;;;;;;;;4977091;28;20404;-78
2022/09/13 13:51:42;;;;;;;7.47;1.20;;;;;;;;;;4988008;28;20039;-78
2022/09/13 13:54:28;;;;;;;6.47;1.25;;;;;;;;;;4986327;28;20622;-78
2022/09/13 13:56:54;;;;;;;5.75;1.55;;;;;;;;;;4994083;28;20038;-78
2022/09/13 13:59:30;;;;;;;5.88;1.52;;;;;;;;;;4994525;28;20104;-78
2022/09/13 14:02:00;;;;;;;8.48;1.30;;;;;;;;;;4987098;28;20046;-79
2022/09/13 14:05:05;;;;;;;7.10;0.90;;;;;;;;;;4987584;28;20038;-80
2022/09/13 14:07:40;;;;;;;5.05;1.13;;;;;;;;;;4893617;29;20033;-78
2022/09/13 14:10:41;;;;;;;6.45;1.27;;;;;;;;;;4900146;29;20055;-80
2022/09/13 14:13:25;;;;;;;5.45;1.10;;;;;;;;;;4886945;29;20068;-79
2022/09/13 14:16:07;;;;;;;6.22;1.48;;;;;;;;;;4974907;28;20049;-79
2022/09/13 14:18:51;;;;;;;6.28;1.20;;;;;;;;;;4992897;28;20026;-80
2022/09/13 14:21:19;;;;;;;6.90;1.20;;;;;;;;;;4974167;28;20038;-79
2022/09/13 14:23:45;;;;;;;7.00;1.10;;;;;;;;;;4972781;28;20109;-79
2022/09/13 14:26:12;;;;;;;6.40;1.00;;;;;;;;;;4991562;28;20035;-79
2022/09/13 14:28:38;;;;;;;9.77;1.48;;;;;;;;;;4966526;28;20054;-78
2022/09/13 14:31:05;;;;;;;9.98;1.15;;;;;;;;;;4985095;28;20062;-83
2022/09/13 14:33:36;;;;;;;6.47;1.20;;;;;;;;;;4968296;28;20038;-79
2022/09/13 14:36:02;;;;;;;5.25;1.23;;;;;;;;;;4986966;28;20038;-79
2022/09/13 14:38:32;;;;;;;10.32;1.67;;;;;;;;;;4983738;28;20026;-79
2022/09/13 14:41:00;;;;;;;9.70;1.52;;;;;;;;;;4984827;28;20034;-79
2022/09/13 14:43:27;;;;;;;8.50;0.98;;;;;;;;;;4983002;28;20061;-79
2022/09/13 14:45:57;;;;;;;8.15;1.33;;;;;;;;;;4980819;28;20550;-77
2022/09/13 14:48:26;;;;;;;8.40;1.10;;;;;;;;;;4985519;28;20022;-77
2022/09/13 14:51:07;;;;;;;7.82;1.05;;;;;;;;;;4980532;28;20547;-76